sensor_id;sensor_type;location;lat;lon;timestamp;P1;durP1;ratioP1;P2;durP2;ratioP2
11269;SDS011;5692;48.956;9.200;2022-09-09T00:01:23;209.32;;;199.32;;
11269;SDS011;5692;48.956;9.200;2022-09-09T00:03:59;191.55;;;182.38;;
11269;SDS011;5692;48.956;9.200;2022-09-09T00:09:18;190.95;;;181.80;;
11269;SDS011;5692;48.956;9.200;2022-09-09T00:11:49;211.75;;;201.65;;
11269;SDS011;5692;48.956;9.200;2022-09-09T00:16:43;192.27;;;183.03;;
11269;SDS011;5692;48.956;9.200;2022-09-09T00:19:16;193.70;;;184.43;;
11269;SDS011;5692;48.956;9.200;2022-09-09T00:21:47;201.85;;;192.20;;
11269;SDS011;5692;48.956;9.200;2022-09-09T00:26:48;183.02;;;174.23;;
11269;SDS011;5692;48.956;9.200;2022-09-09T00:32:11;196.68;;;187.25;;
11269;SDS011;5692;48.956;9.200;2022-09-09T00:34:46;182.77;;;174.00;;
11269;SDS011;5692;48.956;9.200;2022-09-09T00:37:12;182.60;;;173.85;;
11269;SDS011;5692;48.956;9.200;2022-09-09T00:39:42;191.75;;;182.57;;
11269;SDS011;5692;48.956;9.200;2022-09-09T00:44:37;176.23;;;167.77;;
11269;SDS011;5692;48.956;9.200;2022-09-09T00:47:12;198.13;;;188.63;;
11269;SDS011;5692;48.956;9.200;2022-09-09T00:49:46;188.93;;;179.88;;
11269;SDS011;5692;48.956;9.200;2022-09-09T00:54:48;175.93;;;167.52;;
11269;SDS011;5692;48.956;9.200;2022-09-09T00:57:26;179.95;;;171.32;;
11269;SDS011;5692;48.956;9.200;2022-09-09T01:05:27;191.48;;;182.32;;
11269;SDS011;5692;48.956;9.200;2022-09-09T01:07:49;184.85;;;176.00;;
11269;SDS011;5692;48.956;9.200;2022-09-09T01:10:39;188.20;;;179.18;;
11269;SDS011;5692;48.956;9.200;2022-09-09T01:13:02;193.20;;;183.95;;
11269;SDS011;5692;48.956;9.200;2022-09-09T01:15:30;183.40;;;174.60;;
11269;SDS011;5692;48.956;9.200;2022-09-09T01:20:28;177.20;;;168.70;;
11269;SDS011;5692;48.956;9.200;2022-09-09T01:27:51;188.05;;;179.05;;
11269;SDS011;5692;48.956;9.200;2022-09-09T01:30:19;191.57;;;182.43;;
11269;SDS011;5692;48.956;9.200;2022-09-09T01:32:50;201.07;;;191.45;;
11269;SDS011;5692;48.956;9.200;2022-09-09T01:37:51;204.40;;;194.60;;
11269;SDS011;5692;48.956;9.200;2022-09-09T01:40:17;189.63;;;180.52;;
11269;SDS011;5692;48.956;9.200;2022-09-09T01:42:43;191.38;;;182.20;;
11269;SDS011;5692;48.956;9.200;2022-09-09T01:45:09;197.63;;;188.13;;
11269;SDS011;5692;48.956;9.200;2022-09-09T01:47:35;185.35;;;176.45;;
11269;SDS011;5692;48.956;9.200;2022-09-09T01:50:01;210.63;;;200.52;;
11269;SDS011;5692;48.956;9.200;2022-09-09T01:52:28;197.57;;;188.13;;
11269;SDS011;5692;48.956;9.200;2022-09-09T01:54:54;193.20;;;183.95;;
11269;SDS011;5692;48.956;9.200;2022-09-09T01:59:59;196.43;;;187.02;;
11269;SDS011;5692;48.956;9.200;2022-09-09T02:02:32;190.57;;;181.45;;
11269;SDS011;5692;48.956;9.200;2022-09-09T02:07:48;189.15;;;180.07;;
11269;SDS011;5692;48.956;9.200;2022-09-09T02:10:21;194.75;;;185.43;;
11269;SDS011;5692;48.956;9.200;2022-09-09T02:12:53;190.93;;;181.77;;
11269;SDS011;5692;48.956;9.200;2022-09-09T02:18:06;182.18;;;173.45;;
11269;SDS011;5692;48.956;9.200;2022-09-09T02:20:34;193.25;;;184.00;;
11269;SDS011;5692;48.956;9.200;2022-09-09T02:23:02;186.63;;;177.68;;
11269;SDS011;5692;48.956;9.200;2022-09-09T02:25:29;183.02;;;174.23;;
11269;SDS011;5692;48.956;9.200;2022-09-09T02:27:55;199.90;;;190.33;;
11269;SDS011;5692;48.956;9.200;2022-09-09T02:30:23;186.02;;;177.13;;
11269;SDS011;5692;48.956;9.200;2022-09-09T02:32:50;195.88;;;186.50;;
11269;SDS011;5692;48.956;9.200;2022-09-09T02:35:19;193.23;;;183.98;;
11269;SDS011;5692;48.956;9.200;2022-09-09T02:37:46;189.48;;;180.40;;
11269;SDS011;5692;48.956;9.200;2022-09-09T02:40:13;193.07;;;183.82;;
11269;SDS011;5692;48.956;9.200;2022-09-09T02:42:43;199.30;;;189.80;;
11269;SDS011;5692;48.956;9.200;2022-09-09T02:45:10;191.85;;;182.65;;
11269;SDS011;5692;48.956;9.200;2022-09-09T02:50:13;189.15;;;180.10;;
11269;SDS011;5692;48.956;9.200;2022-09-09T02:55:11;171.67;;;163.47;;
11269;SDS011;5692;48.956;9.200;2022-09-09T02:57:39;177.88;;;169.38;;
11269;SDS011;5692;48.956;9.200;2022-09-09T03:00:06;180.68;;;172.02;;
11269;SDS011;5692;48.956;9.200;2022-09-09T03:02:32;195.10;;;185.77;;
11269;SDS011;5692;48.956;9.200;2022-09-09T03:04:58;174.90;;;166.53;;
11269;SDS011;5692;48.956;9.200;2022-09-09T03:07:24;163.57;;;155.73;;
11269;SDS011;5692;48.956;9.200;2022-09-09T03:09:51;173.23;;;164.93;;
11269;SDS011;5692;48.956;9.200;2022-09-09T03:12:19;159.50;;;151.85;;
11269;SDS011;5692;48.956;9.200;2022-09-09T03:14:45;168.88;;;160.80;;
11269;SDS011;5692;48.956;9.200;2022-09-09T03:17:11;169.60;;;161.50;;
11269;SDS011;5692;48.956;9.200;2022-09-09T03:19:37;148.38;;;141.27;;
11269;SDS011;5692;48.956;9.200;2022-09-09T03:22:04;165.57;;;157.65;;
11269;SDS011;5692;48.956;9.200;2022-09-09T03:24:30;175.48;;;167.07;;
11269;SDS011;5692;48.956;9.200;2022-09-09T03:26:56;168.83;;;160.73;;
11269;SDS011;5692;48.956;9.200;2022-09-09T03:29:22;192.68;;;183.45;;
11269;SDS011;5692;48.956;9.200;2022-09-09T03:31:48;168.95;;;160.85;;
11269;SDS011;5692;48.956;9.200;2022-09-09T03:34:16;161.35;;;153.65;;
11269;SDS011;5692;48.956;9.200;2022-09-09T03:36:41;171.60;;;163.40;;
11269;SDS011;5692;48.956;9.200;2022-09-09T03:39:07;168.70;;;160.60;;
11269;SDS011;5692;48.956;9.200;2022-09-09T03:41:33;165.77;;;157.85;;
11269;SDS011;5692;48.956;9.200;2022-09-09T03:43:59;170.57;;;162.38;;
11269;SDS011;5692;48.956;9.200;2022-09-09T03:46:26;179.23;;;170.63;;
11269;SDS011;5692;48.956;9.200;2022-09-09T03:48:52;164.18;;;156.27;;
11269;SDS011;5692;48.956;9.200;2022-09-09T03:51:18;166.35;;;158.35;;
11269;SDS011;5692;48.956;9.200;2022-09-09T03:53:44;163.63;;;155.80;;
11269;SDS011;5692;48.956;9.200;2022-09-09T03:56:11;162.90;;;155.10;;
11269;SDS011;5692;48.956;9.200;2022-09-09T03:58:37;150.20;;;143.00;;
11269;SDS011;5692;48.956;9.200;2022-09-09T04:01:05;163.93;;;156.05;;
11269;SDS011;5692;48.956;9.200;2022-09-09T04:03:33;161.05;;;153.35;;
11269;SDS011;5692;48.956;9.200;2022-09-09T04:06:00;165.43;;;157.50;;
11269;SDS011;5692;48.956;9.200;2022-09-09T04:08:27;153.50;;;146.10;;
11269;SDS011;5692;48.956;9.200;2022-09-09T04:10:53;155.13;;;147.68;;
11269;SDS011;5692;48.956;9.200;2022-09-09T04:13:22;149.80;;;142.60;;
11269;SDS011;5692;48.956;9.200;2022-09-09T04:15:51;156.25;;;148.75;;
11269;SDS011;5692;48.956;9.200;2022-09-09T04:18:18;162.40;;;154.63;;
11269;SDS011;5692;48.956;9.200;2022-09-09T04:20:45;165.15;;;157.23;;
11269;SDS011;5692;48.956;9.200;2022-09-09T04:23:12;143.25;;;136.35;;
11269;SDS011;5692;48.956;9.200;2022-09-09T04:25:42;165.48;;;157.57;;
11269;SDS011;5692;48.956;9.200;2022-09-09T04:28:08;157.35;;;149.80;;
11269;SDS011;5692;48.956;9.200;2022-09-09T04:30:34;171.53;;;163.30;;
11269;SDS011;5692;48.956;9.200;2022-09-09T04:33:00;168.77;;;160.70;;
11269;SDS011;5692;48.956;9.200;2022-09-09T04:35:26;169.83;;;161.73;;
11269;SDS011;5692;48.956;9.200;2022-09-09T04:37:52;159.00;;;151.40;;
11269;SDS011;5692;48.956;9.200;2022-09-09T04:40:18;158.47;;;150.87;;
11269;SDS011;5692;48.956;9.200;2022-09-09T04:42:44;157.83;;;150.27;;
11269;SDS011;5692;48.956;9.200;2022-09-09T04:45:12;171.50;;;163.30;;
11269;SDS011;5692;48.956;9.200;2022-09-09T04:47:38;162.25;;;154.48;;
11269;SDS011;5692;48.956;9.200;2022-09-09T04:50:04;158.00;;;150.43;;
11269;SDS011;5692;48.956;9.200;2022-09-09T04:52:30;165.23;;;157.32;;
11269;SDS011;5692;48.956;9.200;2022-09-09T04:54:56;151.67;;;144.40;;
11269;SDS011;5692;48.956;9.200;2022-09-09T04:57:22;151.95;;;144.65;;
11269;SDS011;5692;48.956;9.200;2022-09-09T04:59:49;152.15;;;144.85;;
11269;SDS011;5692;48.956;9.200;2022-09-09T05:02:15;143.43;;;136.57;;
11269;SDS011;5692;48.956;9.200;2022-09-09T05:04:41;140.90;;;134.13;;
11269;SDS011;5692;48.956;9.200;2022-09-09T05:07:07;158.10;;;150.50;;
11269;SDS011;5692;48.956;9.200;2022-09-09T05:09:33;149.90;;;142.70;;
11269;SDS011;5692;48.956;9.200;2022-09-09T05:11:59;153.15;;;145.82;;
11269;SDS011;5692;48.956;9.200;2022-09-09T05:14:25;153.80;;;146.43;;
11269;SDS011;5692;48.956;9.200;2022-09-09T05:16:52;141.00;;;134.23;;
11269;SDS011;5692;48.956;9.200;2022-09-09T05:19:18;152.38;;;145.07;;
11269;SDS011;5692;48.956;9.200;2022-09-09T05:21:44;151.50;;;144.20;;
11269;SDS011;5692;48.956;9.200;2022-09-09T05:24:10;146.32;;;139.32;;
11269;SDS011;5692;48.956;9.200;2022-09-09T05:26:36;143.50;;;136.60;;
11269;SDS011;5692;48.956;9.200;2022-09-09T05:29:02;135.60;;;129.10;;
11269;SDS011;5692;48.956;9.200;2022-09-09T05:31:29;140.90;;;134.13;;
11269;SDS011;5692;48.956;9.200;2022-09-09T05:33:55;145.07;;;138.10;;
11269;SDS011;5692;48.956;9.200;2022-09-09T05:36:21;141.68;;;134.88;;
11269;SDS011;5692;48.956;9.200;2022-09-09T05:38:48;149.00;;;141.85;;
11269;SDS011;5692;48.956;9.200;2022-09-09T05:41:15;143.57;;;136.68;;
11269;SDS011;5692;48.956;9.200;2022-09-09T05:43:42;152.25;;;144.95;;
11269;SDS011;5692;48.956;9.200;2022-09-09T05:46:13;159.55;;;151.90;;
11269;SDS011;5692;48.956;9.200;2022-09-09T05:48:40;155.55;;;148.10;;
11269;SDS011;5692;48.956;9.200;2022-09-09T05:51:08;162.57;;;154.80;;
11269;SDS011;5692;48.956;9.200;2022-09-09T05:53:34;157.52;;;149.98;;
11269;SDS011;5692;48.956;9.200;2022-09-09T05:56:01;140.10;;;133.40;;
11269;SDS011;5692;48.956;9.200;2022-09-09T05:58:28;144.68;;;137.75;;
11269;SDS011;5692;48.956;9.200;2022-09-09T06:01:00;148.55;;;141.45;;
11269;SDS011;5692;48.956;9.200;2022-09-09T06:03:26;152.40;;;145.10;;
11269;SDS011;5692;48.956;9.200;2022-09-09T06:05:59;158.73;;;151.13;;
11269;SDS011;5692;48.956;9.200;2022-09-09T06:08:25;149.27;;;142.10;;
11269;SDS011;5692;48.956;9.200;2022-09-09T06:10:51;166.05;;;158.10;;
11269;SDS011;5692;48.956;9.200;2022-09-09T06:13:17;170.73;;;162.52;;
11269;SDS011;5692;48.956;9.200;2022-09-09T06:15:50;156.68;;;149.18;;
11269;SDS011;5692;48.956;9.200;2022-09-09T06:18:17;178.55;;;170.00;;
11269;SDS011;5692;48.956;9.200;2022-09-09T06:20:52;164.15;;;156.30;;
11269;SDS011;5692;48.956;9.200;2022-09-09T06:23:19;182.48;;;173.73;;
11269;SDS011;5692;48.956;9.200;2022-09-09T06:25:45;179.35;;;170.77;;
11269;SDS011;5692;48.956;9.200;2022-09-09T06:28:11;178.05;;;169.55;;
11269;SDS011;5692;48.956;9.200;2022-09-09T06:30:38;161.82;;;154.05;;
11269;SDS011;5692;48.956;9.200;2022-09-09T06:33:05;172.27;;;164.02;;
11269;SDS011;5692;48.956;9.200;2022-09-09T06:35:31;176.33;;;167.90;;
11269;SDS011;5692;48.956;9.200;2022-09-09T06:37:57;170.50;;;162.33;;
11269;SDS011;5692;48.956;9.200;2022-09-09T06:40:24;165.18;;;157.27;;
11269;SDS011;5692;48.956;9.200;2022-09-09T06:42:50;180.45;;;171.82;;
11269;SDS011;5692;48.956;9.200;2022-09-09T06:45:16;172.13;;;163.88;;
11269;SDS011;5692;48.956;9.200;2022-09-09T06:47:42;190.88;;;181.75;;
11269;SDS011;5692;48.956;9.200;2022-09-09T06:50:08;179.93;;;171.30;;
11269;SDS011;5692;48.956;9.200;2022-09-09T06:52:36;187.98;;;178.98;;
11269;SDS011;5692;48.956;9.200;2022-09-09T06:55:02;187.77;;;178.77;;
11269;SDS011;5692;48.956;9.200;2022-09-09T06:57:28;188.65;;;179.65;;
11269;SDS011;5692;48.956;9.200;2022-09-09T06:59:54;208.85;;;198.85;;
11269;SDS011;5692;48.956;9.200;2022-09-09T07:02:20;188.50;;;179.50;;
11269;SDS011;5692;48.956;9.200;2022-09-09T07:04:46;202.32;;;192.65;;
11269;SDS011;5692;48.956;9.200;2022-09-09T07:07:15;207.45;;;197.52;;
11269;SDS011;5692;48.956;9.200;2022-09-09T07:09:42;201.15;;;191.50;;
11269;SDS011;5692;48.956;9.200;2022-09-09T07:12:10;211.05;;;200.95;;
11269;SDS011;5692;48.956;9.200;2022-09-09T07:14:37;205.15;;;195.32;;
11269;SDS011;5692;48.956;9.200;2022-09-09T07:17:04;206.05;;;196.18;;
11269;SDS011;5692;48.956;9.200;2022-09-09T07:19:30;196.02;;;186.65;;
11269;SDS011;5692;48.956;9.200;2022-09-09T07:21:56;193.02;;;183.77;;
11269;SDS011;5692;48.956;9.200;2022-09-09T07:24:22;201.43;;;191.80;;
11269;SDS011;5692;48.956;9.200;2022-09-09T07:26:48;196.00;;;186.63;;
11269;SDS011;5692;48.956;9.200;2022-09-09T07:29:14;193.43;;;184.13;;
11269;SDS011;5692;48.956;9.200;2022-09-09T07:31:41;208.38;;;198.40;;
11269;SDS011;5692;48.956;9.200;2022-09-09T07:34:07;196.00;;;186.60;;
11269;SDS011;5692;48.956;9.200;2022-09-09T07:36:37;188.45;;;179.45;;
11269;SDS011;5692;48.956;9.200;2022-09-09T07:39:08;209.23;;;199.20;;
11269;SDS011;5692;48.956;9.200;2022-09-09T07:44:07;192.75;;;183.52;;
11269;SDS011;5692;48.956;9.200;2022-09-09T07:46:34;200.50;;;190.90;;
11269;SDS011;5692;48.956;9.200;2022-09-09T07:49:00;201.15;;;191.52;;
11269;SDS011;5692;48.956;9.200;2022-09-09T07:51:29;206.88;;;196.98;;
11269;SDS011;5692;48.956;9.200;2022-09-09T07:53:59;206.25;;;196.40;;
11269;SDS011;5692;48.956;9.200;2022-09-09T07:56:27;219.82;;;209.30;;
11269;SDS011;5692;48.956;9.200;2022-09-09T07:58:54;207.02;;;197.13;;
11269;SDS011;5692;48.956;9.200;2022-09-09T08:01:21;220.55;;;210.00;;
11269;SDS011;5692;48.956;9.200;2022-09-09T08:03:52;208.55;;;198.55;;
11269;SDS011;5692;48.956;9.200;2022-09-09T08:06:18;222.60;;;211.95;;
11269;SDS011;5692;48.956;9.200;2022-09-09T08:08:44;219.67;;;209.17;;
11269;SDS011;5692;48.956;9.200;2022-09-09T08:11:13;212.00;;;201.85;;
11269;SDS011;5692;48.956;9.200;2022-09-09T08:13:41;202.52;;;192.82;;
11269;SDS011;5692;48.956;9.200;2022-09-09T08:16:08;215.35;;;205.05;;
11269;SDS011;5692;48.956;9.200;2022-09-09T08:18:34;214.52;;;204.23;;
11269;SDS011;5692;48.956;9.200;2022-09-09T08:21:43;205.52;;;195.70;;
11269;SDS011;5692;48.956;9.200;2022-09-09T08:23:52;217.95;;;207.55;;
11269;SDS011;5692;48.956;9.200;2022-09-09T08:26:19;214.25;;;204.00;;
11269;SDS011;5692;48.956;9.200;2022-09-09T08:28:49;235.15;;;223.90;;
11269;SDS011;5692;48.956;9.200;2022-09-09T08:31:26;215.45;;;205.13;;
11269;SDS011;5692;48.956;9.200;2022-09-09T08:33:55;228.45;;;217.52;;
11269;SDS011;5692;48.956;9.200;2022-09-09T08:36:23;222.77;;;212.10;;
11269;SDS011;5692;48.956;9.200;2022-09-09T08:38:51;240.63;;;229.13;;
11269;SDS011;5692;48.956;9.200;2022-09-09T08:43:48;232.30;;;221.20;;
11269;SDS011;5692;48.956;9.200;2022-09-09T08:48:55;225.35;;;214.57;;
11269;SDS011;5692;48.956;9.200;2022-09-09T08:51:23;240.10;;;228.60;;
11269;SDS011;5692;48.956;9.200;2022-09-09T08:53:51;224.60;;;213.85;;
11269;SDS011;5692;48.956;9.200;2022-09-09T08:56:27;236.48;;;225.18;;
11269;SDS011;5692;48.956;9.200;2022-09-09T08:58:54;241.48;;;229.93;;
11269;SDS011;5692;48.956;9.200;2022-09-09T09:01:34;227.95;;;217.05;;
11269;SDS011;5692;48.956;9.200;2022-09-09T09:11:37;227.00;;;216.13;;
11269;SDS011;5692;48.956;9.200;2022-09-09T09:14:07;232.90;;;221.77;;
11269;SDS011;5692;48.956;9.200;2022-09-09T09:19:13;217.02;;;206.65;;
11269;SDS011;5692;48.956;9.200;2022-09-09T09:24:42;206.80;;;196.90;;
11269;SDS011;5692;48.956;9.200;2022-09-09T09:26:59;218.07;;;207.65;;
11269;SDS011;5692;48.956;9.200;2022-09-09T09:29:26;207.95;;;198.00;;
11269;SDS011;5692;48.956;9.200;2022-09-09T09:31:53;219.82;;;209.32;;
11269;SDS011;5692;48.956;9.200;2022-09-09T09:34:19;224.30;;;213.55;;
11269;SDS011;5692;48.956;9.200;2022-09-09T09:36:52;227.10;;;216.23;;
11269;SDS011;5692;48.956;9.200;2022-09-09T09:39:22;240.13;;;228.63;;
11269;SDS011;5692;48.956;9.200;2022-09-09T09:41:49;211.52;;;201.40;;
11269;SDS011;5692;48.956;9.200;2022-09-09T09:46:50;218.37;;;207.93;;
11269;SDS011;5692;48.956;9.200;2022-09-09T09:49:16;224.50;;;213.73;;
11269;SDS011;5692;48.956;9.200;2022-09-09T09:51:42;227.00;;;216.15;;
11269;SDS011;5692;48.956;9.200;2022-09-09T09:54:09;245.10;;;233.37;;
11269;SDS011;5692;48.956;9.200;2022-09-09T09:56:40;217.65;;;207.25;;
11269;SDS011;5692;48.956;9.200;2022-09-09T09:59:18;226.73;;;215.90;;
11269;SDS011;5692;48.956;9.200;2022-09-09T10:01:45;226.13;;;215.30;;
11269;SDS011;5692;48.956;9.200;2022-09-09T10:04:15;247.33;;;235.50;;
11269;SDS011;5692;48.956;9.200;2022-09-09T10:06:42;225.50;;;214.70;;
11269;SDS011;5692;48.956;9.200;2022-09-09T10:12:02;248.80;;;236.90;;
11269;SDS011;5692;48.956;9.200;2022-09-09T10:14:53;224.23;;;213.53;;
11269;SDS011;5692;48.956;9.200;2022-09-09T10:22:37;224.93;;;214.17;;
11269;SDS011;5692;48.956;9.200;2022-09-09T10:30:47;221.98;;;211.38;;
11269;SDS011;5692;48.956;9.200;2022-09-09T10:33:22;224.43;;;213.70;;
11269;SDS011;5692;48.956;9.200;2022-09-09T10:46:20;226.40;;;215.57;;
11269;SDS011;5692;48.956;9.200;2022-09-09T10:56:18;211.32;;;201.23;;
11269;SDS011;5692;48.956;9.200;2022-09-09T10:58:51;218.48;;;208.02;;
11269;SDS011;5692;48.956;9.200;2022-09-09T11:04:10;216.60;;;206.20;;
11269;SDS011;5692;48.956;9.200;2022-09-09T11:06:39;212.07;;;201.93;;
11269;SDS011;5692;48.956;9.200;2022-09-09T11:09:08;190.27;;;181.18;;
11269;SDS011;5692;48.956;9.200;2022-09-09T11:11:42;193.85;;;184.55;;
11269;SDS011;5692;48.956;9.200;2022-09-09T11:14:15;184.80;;;175.95;;
11269;SDS011;5692;48.956;9.200;2022-09-09T11:16:52;195.82;;;186.45;;
11269;SDS011;5692;48.956;9.200;2022-09-09T11:21:47;205.23;;;195.40;;
11269;SDS011;5692;48.956;9.200;2022-09-09T11:24:21;192.30;;;183.10;;
11269;SDS011;5692;48.956;9.200;2022-09-09T11:26:57;208.48;;;198.48;;
11269;SDS011;5692;48.956;9.200;2022-09-09T11:42:43;216.50;;;206.13;;
11269;SDS011;5692;48.956;9.200;2022-09-09T11:45:10;221.90;;;211.27;;
11269;SDS011;5692;48.956;9.200;2022-09-09T11:47:37;222.25;;;211.63;;
11269;SDS011;5692;48.956;9.200;2022-09-09T11:50:10;194.88;;;185.57;;
11269;SDS011;5692;48.956;9.200;2022-09-09T11:53:02;199.63;;;190.05;;
11269;SDS011;5692;48.956;9.200;2022-09-09T11:55:35;200.13;;;190.52;;
11269;SDS011;5692;48.956;9.200;2022-09-09T11:58:19;201.10;;;191.48;;
11269;SDS011;5692;48.956;9.200;2022-09-09T12:00:48;180.93;;;172.23;;
11269;SDS011;5692;48.956;9.200;2022-09-09T12:06:00;208.60;;;198.60;;
11269;SDS011;5692;48.956;9.200;2022-09-09T12:08:35;218.00;;;207.57;;
11269;SDS011;5692;48.956;9.200;2022-09-09T12:11:01;233.02;;;221.90;;
11269;SDS011;5692;48.956;9.200;2022-09-09T12:13:30;233.07;;;221.93;;
11269;SDS011;5692;48.956;9.200;2022-09-09T12:15:57;224.33;;;213.60;;
11269;SDS011;5692;48.956;9.200;2022-09-09T12:23:29;235.07;;;223.85;;
11269;SDS011;5692;48.956;9.200;2022-09-09T12:28:25;225.80;;;215.00;;
11269;SDS011;5692;48.956;9.200;2022-09-09T12:30:57;236.10;;;224.82;;
11269;SDS011;5692;48.956;9.200;2022-09-09T12:33:24;243.10;;;231.47;;
11269;SDS011;5692;48.956;9.200;2022-09-09T12:35:59;226.90;;;216.07;;
11269;SDS011;5692;48.956;9.200;2022-09-09T12:38:31;250.50;;;238.50;;
11269;SDS011;5692;48.956;9.200;2022-09-09T12:40:58;289.03;;;275.20;;
11269;SDS011;5692;48.956;9.200;2022-09-09T12:43:25;221.13;;;210.53;;
11269;SDS011;5692;48.956;9.200;2022-09-09T12:45:53;250.03;;;238.07;;
11269;SDS011;5692;48.956;9.200;2022-09-09T12:48:23;262.33;;;249.80;;
11269;SDS011;5692;48.956;9.200;2022-09-09T12:50:51;250.70;;;238.70;;
11269;SDS011;5692;48.956;9.200;2022-09-09T12:53:25;241.63;;;230.07;;
11269;SDS011;5692;48.956;9.200;2022-09-09T12:58:24;277.87;;;264.57;;
11269;SDS011;5692;48.956;9.200;2022-09-09T13:00:51;217.20;;;206.80;;
11269;SDS011;5692;48.956;9.200;2022-09-09T13:03:18;233.17;;;222.00;;
11269;SDS011;5692;48.956;9.200;2022-09-09T13:05:46;260.33;;;247.90;;
11269;SDS011;5692;48.956;9.200;2022-09-09T13:08:13;218.00;;;207.60;;
11269;SDS011;5692;48.956;9.200;2022-09-09T13:10:53;268.73;;;255.90;;
11269;SDS011;5692;48.956;9.200;2022-09-09T13:13:26;255.93;;;243.73;;
11269;SDS011;5692;48.956;9.200;2022-09-09T13:15:53;261.13;;;248.63;;
11269;SDS011;5692;48.956;9.200;2022-09-09T13:18:21;258.50;;;246.17;;
11269;SDS011;5692;48.956;9.200;2022-09-09T13:20:48;261.33;;;248.83;;
11269;SDS011;5692;48.956;9.200;2022-09-09T13:23:14;253.47;;;241.33;;
11269;SDS011;5692;48.956;9.200;2022-09-09T13:25:40;254.43;;;242.23;;
11269;SDS011;5692;48.956;9.200;2022-09-09T13:28:18;260.77;;;248.27;;
11269;SDS011;5692;48.956;9.200;2022-09-09T13:30:54;247.00;;;235.17;;
11269;SDS011;5692;48.956;9.200;2022-09-09T13:33:21;245.20;;;233.50;;
11269;SDS011;5692;48.956;9.200;2022-09-09T13:35:49;243.43;;;231.80;;
11269;SDS011;5692;48.956;9.200;2022-09-09T13:38:16;267.33;;;254.57;;
11269;SDS011;5692;48.956;9.200;2022-09-09T13:40:52;267.83;;;255.03;;
11269;SDS011;5692;48.956;9.200;2022-09-09T13:43:21;255.20;;;243.00;;
11269;SDS011;5692;48.956;9.200;2022-09-09T13:45:58;234.50;;;223.27;;
11269;SDS011;5692;48.956;9.200;2022-09-09T13:48:25;29.57;;;28.10;;
11269;SDS011;5692;48.956;9.200;2022-09-09T13:50:54;5.37;;;1.70;;
11269;SDS011;5692;48.956;9.200;2022-09-09T13:53:20;10.40;;;1.20;;
11269;SDS011;5692;48.956;9.200;2022-09-09T13:55:46;194.97;;;185.63;;
11269;SDS011;5692;48.956;9.200;2022-09-09T13:58:16;238.23;;;226.83;;
11269;SDS011;5692;48.956;9.200;2022-09-09T14:00:46;224.27;;;213.53;;
11269;SDS011;5692;48.956;9.200;2022-09-09T14:03:12;232.50;;;221.40;;
11269;SDS011;5692;48.956;9.200;2022-09-09T14:05:39;238.03;;;226.63;;
11269;SDS011;5692;48.956;9.200;2022-09-09T14:08:05;219.47;;;208.97;;
11269;SDS011;5692;48.956;9.200;2022-09-09T14:10:31;240.00;;;228.50;;
11269;SDS011;5692;48.956;9.200;2022-09-09T14:12:57;220.83;;;210.27;;
11269;SDS011;5692;48.956;9.200;2022-09-09T14:15:23;216.60;;;206.20;;
11269;SDS011;5692;48.956;9.200;2022-09-09T14:17:49;224.97;;;214.20;;
11269;SDS011;5692;48.956;9.200;2022-09-09T14:20:17;231.50;;;220.40;;
11269;SDS011;5692;48.956;9.200;2022-09-09T14:22:44;232.33;;;221.23;;
11269;SDS011;5692;48.956;9.200;2022-09-09T14:25:10;232.63;;;221.50;;
11269;SDS011;5692;48.956;9.200;2022-09-09T14:27:38;240.40;;;228.90;;
11269;SDS011;5692;48.956;9.200;2022-09-09T14:30:04;236.10;;;224.80;;
11269;SDS011;5692;48.956;9.200;2022-09-09T14:32:30;239.50;;;228.03;;
11269;SDS011;5692;48.956;9.200;2022-09-09T14:34:56;239.23;;;227.80;;
11269;SDS011;5692;48.956;9.200;2022-09-09T14:37:22;234.77;;;223.53;;
11269;SDS011;5692;48.956;9.200;2022-09-09T14:39:49;238.40;;;227.00;;
11269;SDS011;5692;48.956;9.200;2022-09-09T14:42:15;222.00;;;211.37;;
11269;SDS011;5692;48.956;9.200;2022-09-09T14:44:41;226.93;;;216.07;;
11269;SDS011;5692;48.956;9.200;2022-09-09T14:47:08;226.37;;;215.53;;
11269;SDS011;5692;48.956;9.200;2022-09-09T14:49:34;224.10;;;213.40;;
11269;SDS011;5692;48.956;9.200;2022-09-09T14:52:00;222.07;;;211.47;;
11269;SDS011;5692;48.956;9.200;2022-09-09T14:54:26;213.73;;;203.53;;
11269;SDS011;5692;48.956;9.200;2022-09-09T14:56:53;232.40;;;221.30;;
11269;SDS011;5692;48.956;9.200;2022-09-09T14:59:19;215.87;;;205.57;;
11269;SDS011;5692;48.956;9.200;2022-09-09T15:01:45;216.43;;;206.07;;
11269;SDS011;5692;48.956;9.200;2022-09-09T15:04:11;222.37;;;211.77;;
11269;SDS011;5692;48.956;9.200;2022-09-09T15:06:39;210.43;;;200.38;;
11269;SDS011;5692;48.956;9.200;2022-09-09T15:09:07;214.93;;;204.65;;
11269;SDS011;5692;48.956;9.200;2022-09-09T15:11:34;222.00;;;211.40;;
11269;SDS011;5692;48.956;9.200;2022-09-09T15:14:03;207.48;;;197.57;;
11269;SDS011;5692;48.956;9.200;2022-09-09T15:16:29;216.38;;;206.02;;
11269;SDS011;5692;48.956;9.200;2022-09-09T15:18:57;218.55;;;208.10;;
11269;SDS011;5692;48.956;9.200;2022-09-09T15:21:24;204.65;;;194.85;;
11269;SDS011;5692;48.956;9.200;2022-09-09T15:23:50;205.05;;;195.25;;
11269;SDS011;5692;48.956;9.200;2022-09-09T15:26:17;192.57;;;183.33;;
11269;SDS011;5692;48.956;9.200;2022-09-09T15:28:43;216.07;;;205.75;;
11269;SDS011;5692;48.956;9.200;2022-09-09T15:31:14;208.65;;;198.65;;
11269;SDS011;5692;48.956;9.200;2022-09-09T15:33:46;203.80;;;194.02;;
11269;SDS011;5692;48.956;9.200;2022-09-09T15:38:39;209.55;;;199.55;;
11269;SDS011;5692;48.956;9.200;2022-09-09T15:41:05;215.55;;;205.23;;
11269;SDS011;5692;48.956;9.200;2022-09-09T15:43:31;209.35;;;199.35;;
11269;SDS011;5692;48.956;9.200;2022-09-09T15:45:58;211.33;;;201.20;;
11269;SDS011;5692;48.956;9.200;2022-09-09T15:48:30;213.55;;;203.35;;
11269;SDS011;5692;48.956;9.200;2022-09-09T15:51:03;203.98;;;194.20;;
11269;SDS011;5692;48.956;9.200;2022-09-09T15:53:30;203.27;;;193.55;;
11269;SDS011;5692;48.956;9.200;2022-09-09T15:55:57;211.65;;;201.52;;
11269;SDS011;5692;48.956;9.200;2022-09-09T15:58:24;189.63;;;180.55;;
11269;SDS011;5692;48.956;9.200;2022-09-09T16:00:50;195.17;;;185.83;;
11269;SDS011;5692;48.956;9.200;2022-09-09T16:03:16;194.40;;;185.10;;
11269;SDS011;5692;48.956;9.200;2022-09-09T16:05:42;199.60;;;190.03;;
11269;SDS011;5692;48.956;9.200;2022-09-09T16:08:08;199.17;;;189.63;;
11269;SDS011;5692;48.956;9.200;2022-09-09T16:10:34;201.40;;;191.77;;
11269;SDS011;5692;48.956;9.200;2022-09-09T16:13:01;205.90;;;196.02;;
11269;SDS011;5692;48.956;9.200;2022-09-09T16:15:27;211.38;;;201.27;;
11269;SDS011;5692;48.956;9.200;2022-09-09T16:17:53;228.93;;;217.98;;
11269;SDS011;5692;48.956;9.200;2022-09-09T16:20:19;202.97;;;193.27;;
11269;SDS011;5692;48.956;9.200;2022-09-09T16:22:45;188.67;;;179.63;;
11269;SDS011;5692;48.956;9.200;2022-09-09T16:25:11;180.88;;;172.20;;
11269;SDS011;5692;48.956;9.200;2022-09-09T16:27:37;200.17;;;190.57;;